createdAt,value
2022-09-20T00:00:48.260Z,10.20
2022-09-20T00:01:49.672Z,10.20
2022-09-20T00:02:51.004Z,10.20
2022-09-20T00:03:56.650Z,10.21
2022-09-20T00:04:58.290Z,10.17
2022-09-20T00:06:03.284Z,10.19
2022-09-20T00:07:04.630Z,10.20
2022-09-20T00:08:06.648Z,10.20
2022-09-20T00:09:07.991Z,10.18
2022-09-20T00:10:09.383Z,10.18
2022-09-20T00:11:15.633Z,10.17
2022-09-20T00:12:16.933Z,10.16
2022-09-20T00:13:18.284Z,10.17
2022-09-20T00:14:19.615Z,10.13
2022-09-20T00:15:20.996Z,10.09
2022-09-20T00:16:24.348Z,10.07
2022-09-20T00:17:25.717Z,10.06
2022-09-20T00:18:27.039Z,10.02
2022-09-20T00:19:28.362Z,10.02
2022-09-20T00:20:30.185Z,10.01
2022-09-20T00:21:32.901Z,10.00
2022-09-20T00:22:34.213Z,9.97
2022-09-20T00:23:35.512Z,9.99
2022-09-20T00:24:36.849Z,9.96
2022-09-20T00:25:38.188Z,9.96
2022-09-20T00:26:39.604Z,10.00
2022-09-20T00:27:41.222Z,10.00
2022-09-20T00:28:42.569Z,10.01
2022-09-20T00:29:43.893Z,10.00
2022-09-20T00:30:45.217Z,9.99
2022-09-20T00:31:46.571Z,10.02
2022-09-20T00:32:47.884Z,10.01
2022-09-20T00:33:49.381Z,10.02
2022-09-20T00:34:50.749Z,10.04
2022-09-20T00:35:52.056Z,10.05
2022-09-20T00:36:53.400Z,10.06
2022-09-20T00:37:54.747Z,10.08
2022-09-20T00:38:56.466Z,10.08
2022-09-20T00:39:57.874Z,10.10
2022-09-20T00:40:59.243Z,10.08
2022-09-20T00:42:00.582Z,10.08
2022-09-20T00:43:01.937Z,10.10
2022-09-20T00:44:23.205Z,10.12
2022-09-20T00:45:28.391Z,10.14
2022-09-20T00:46:37.808Z,10.15
2022-09-20T00:47:43.672Z,10.16
2022-09-20T00:48:45.161Z,10.17
2022-09-20T00:49:46.550Z,10.16
2022-09-20T00:51:09.400Z,10.17
2022-09-20T00:52:10.898Z,10.19
2022-09-20T00:53:18.248Z,10.20
2022-09-20T00:54:21.685Z,10.20
2022-09-20T00:55:23.550Z,10.19
2022-09-20T00:56:27.453Z,10.20
2022-09-20T00:57:29.407Z,10.20
2022-09-20T00:58:32.944Z,10.23
2022-09-20T00:59:37.006Z,10.23
2022-09-20T01:00:38.981Z,10.24
2022-09-20T01:01:41.269Z,10.23
2022-09-20T01:02:48.022Z,10.24
2022-09-20T01:03:49.513Z,10.22
2022-09-20T01:04:51.082Z,10.24
2022-09-20T01:05:53.333Z,10.25
2022-09-20T01:06:57.687Z,10.22
2022-09-20T01:07:59.071Z,10.24
2022-09-20T01:09:02.145Z,10.24
2022-09-20T01:10:03.512Z,10.25
2022-09-20T01:11:05.099Z,10.26
2022-09-20T01:12:07.757Z,10.26
2022-09-20T01:13:09.114Z,10.26
2022-09-20T01:14:13.024Z,10.27
2022-09-20T01:15:14.617Z,10.26
2022-09-20T01:16:16.812Z,10.26
2022-09-20T01:17:19.417Z,10.28
2022-09-20T01:18:22.076Z,10.29
2022-09-20T01:19:26.318Z,10.29
2022-09-20T01:20:36.252Z,10.27
2022-09-20T01:21:37.725Z,10.29
2022-09-20T01:22:39.001Z,10.30
2022-09-20T01:23:42.936Z,10.30
2022-09-20T01:24:47.248Z,10.28
2022-09-20T01:26:07.345Z,10.26
2022-09-20T01:27:08.641Z,10.26
2022-09-20T01:28:09.937Z,10.26
2022-09-20T01:29:18.325Z,10.28
2022-09-20T01:30:21.078Z,10.28
2022-09-20T01:31:22.415Z,10.29
2022-09-20T01:32:25.468Z,10.29
2022-09-20T01:33:44.960Z,10.26
2022-09-20T01:34:48.206Z,10.25
2022-09-20T01:35:51.260Z,10.26
2022-09-20T01:37:10.798Z,10.27
2022-09-20T01:38:30.528Z,10.24
2022-09-20T01:39:44.150Z,10.25
2022-09-20T01:41:06.809Z,10.23
2022-09-20T01:42:09.769Z,10.24
2022-09-20T01:43:18.275Z,10.24
2022-09-20T01:44:22.231Z,10.24
2022-09-20T01:45:27.223Z,10.24
2022-09-20T01:46:29.762Z,10.24
2022-09-20T01:47:35.520Z,10.28
2022-09-20T01:48:40.237Z,10.25
2022-09-20T01:50:04.593Z,10.25
2022-09-20T01:51:05.891Z,10.25
2022-09-20T01:52:12.942Z,10.26
2022-09-20T01:53:32.640Z,10.26
2022-09-20T01:54:46.197Z,10.26
2022-09-20T01:56:06.116Z,10.27
2022-09-20T01:57:13.368Z,10.27
2022-09-20T01:58:20.757Z,10.28
2022-09-20T01:59:40.202Z,10.28
2022-09-20T02:01:00.264Z,10.29
2022-09-20T02:02:01.662Z,10.31
2022-09-20T02:03:26.034Z,10.34
2022-09-20T02:04:33.517Z,10.34
2022-09-20T02:05:57.978Z,10.34
2022-09-20T02:07:17.472Z,10.33
2022-09-20T02:08:34.241Z,10.32
2022-09-20T02:09:38.624Z,10.33
2022-09-20T02:10:58.285Z,10.33
2022-09-20T02:12:05.836Z,10.35
2022-09-20T02:13:10.958Z,10.33
2022-09-20T02:14:30.841Z,10.31
2022-09-20T02:15:41.082Z,10.30
2022-09-20T02:16:50.372Z,10.29
2022-09-20T02:18:30.340Z,10.30
2022-09-20T02:19:53.628Z,10.30
2022-09-20T02:21:03.436Z,10.32
2022-09-20T02:22:16.296Z,10.31
2022-09-20T02:23:36.096Z,10.27
2022-09-20T02:24:37.373Z,10.24
2022-09-20T02:25:38.667Z,10.24
2022-09-20T02:26:50.699Z,10.27
2022-09-20T02:28:21.228Z,10.25
2022-09-20T02:29:40.833Z,10.24
2022-09-20T02:31:00.341Z,10.25
2022-09-20T02:32:16.989Z,10.28
2022-09-20T02:33:36.997Z,10.27
2022-09-20T02:34:44.241Z,10.29
2022-09-20T02:35:45.571Z,10.30
2022-09-20T02:37:06.437Z,10.24
2022-09-20T02:38:16.205Z,10.24
2022-09-20T02:39:22.077Z,10.25
2022-09-20T02:40:29.588Z,10.25
2022-09-20T02:41:30.993Z,10.22
2022-09-20T02:42:41.093Z,10.20
2022-09-20T02:43:53.963Z,10.19
2022-09-20T02:45:01.022Z,10.14
2022-09-20T02:46:21.611Z,10.12
2022-09-20T02:47:23.018Z,10.11
2022-09-20T02:48:28.765Z,10.12
2022-09-20T02:49:30.064Z,10.12
2022-09-20T02:50:37.150Z,10.14
2022-09-20T02:51:44.629Z,10.09
2022-09-20T02:52:48.877Z,10.04
2022-09-20T02:54:02.455Z,10.06
2022-09-20T02:55:19.154Z,10.02
2022-09-20T02:56:33.899Z,9.96
2022-09-20T02:57:59.742Z,9.96
2022-09-20T02:59:01.028Z,9.93
2022-09-20T03:00:04.879Z,9.93
2022-09-20T03:01:09.274Z,9.90
2022-09-20T03:02:26.503Z,9.87
2022-09-20T03:03:43.233Z,9.87
2022-09-20T03:05:01.230Z,9.84
2022-09-20T03:06:25.612Z,9.89
2022-09-20T03:07:33.824Z,9.85
2022-09-20T03:08:35.164Z,9.84
2022-09-20T03:09:45.345Z,9.84
2022-09-20T03:10:52.788Z,9.85
2022-09-20T03:12:02.401Z,9.85
2022-09-20T03:13:15.857Z,9.84
2022-09-20T03:14:19.822Z,9.84
2022-09-20T03:15:40.127Z,9.82
2022-09-20T03:16:52.438Z,9.83
2022-09-20T03:18:00.150Z,9.84
2022-09-20T03:19:20.362Z,9.85
2022-09-20T03:20:36.252Z,9.85
2022-09-20T03:21:37.924Z,9.86
2022-09-20T03:22:48.770Z,9.85
2022-09-20T03:23:56.997Z,9.84
2022-09-20T03:25:16.682Z,9.83
2022-09-20T03:26:34.450Z,9.85
2022-09-20T03:27:38.531Z,9.87
2022-09-20T03:28:48.993Z,9.87
2022-09-20T03:30:09.329Z,9.88
2022-09-20T03:31:29.288Z,9.86
2022-09-20T03:32:45.733Z,9.87
2022-09-20T03:34:07.326Z,9.90
2022-09-20T03:35:14.281Z,9.90
2022-09-20T03:36:24.422Z,9.91
2022-09-20T03:37:41.031Z,9.93
2022-09-20T03:38:48.513Z,9.95
2022-09-20T03:40:08.780Z,9.94
2022-09-20T03:41:10.167Z,9.95
2022-09-20T03:42:17.570Z,9.94
2022-09-20T03:43:57.324Z,9.94
2022-09-20T03:45:07.916Z,9.95
2022-09-20T03:46:09.306Z,9.99
2022-09-20T03:47:16.685Z,9.99
2022-09-20T03:48:39.505Z,9.98
2022-09-20T03:49:40.799Z,9.94
2022-09-20T03:50:42.141Z,9.93
2022-09-20T03:51:46.147Z,9.91
2022-09-20T03:52:53.505Z,9.93
2022-09-20T03:54:21.349Z,9.90
2022-09-20T03:55:37.593Z,9.93
2022-09-20T03:56:59.163Z,9.99
2022-09-20T03:58:08.832Z,9.95
2022-09-20T03:59:13.115Z,9.99
2022-09-20T04:00:42.179Z,9.99
2022-09-20T04:02:01.694Z,10.00
2022-09-20T04:03:18.234Z,10.02
2022-09-20T04:04:30.193Z,10.02
2022-09-20T04:05:45.369Z,10.03
2022-09-20T04:06:55.588Z,10.03
2022-09-20T04:07:59.873Z,10.03
2022-09-20T04:09:20.028Z,10.03
2022-09-20T04:10:24.095Z,10.03
2022-09-20T04:11:27.875Z,10.04
2022-09-20T04:12:47.679Z,10.04
2022-09-20T04:14:06.871Z,10.06
2022-09-20T04:15:32.126Z,10.05
2022-09-20T04:16:43.074Z,10.07
2022-09-20T04:17:47.559Z,10.10
2022-09-20T04:18:55.825Z,10.10
2022-09-20T04:20:17.902Z,10.07
2022-09-20T04:21:21.958Z,10.06
2022-09-20T04:22:24.534Z,10.05
2022-09-20T04:23:36.130Z,10.02
2022-09-20T04:24:56.381Z,9.99
2022-09-20T04:25:59.026Z,9.95
2022-09-20T04:27:02.658Z,9.98
2022-09-20T04:28:12.829Z,9.97
2022-09-20T04:29:20.041Z,10.01
2022-09-20T04:30:21.359Z,9.99
2022-09-20T04:31:41.718Z,9.94
2022-09-20T04:32:47.142Z,9.93
2022-09-20T04:33:50.241Z,9.97
2022-09-20T04:34:57.945Z,9.99
2022-09-20T04:36:18.158Z,9.99
2022-09-20T04:37:30.130Z,9.94
2022-09-20T04:38:31.802Z,9.91
2022-09-20T04:39:38.993Z,9.91
2022-09-20T04:40:56.104Z,9.91
2022-09-20T04:42:12.768Z,9.92
2022-09-20T04:43:37.419Z,9.91
2022-09-20T04:44:38.730Z,9.92
2022-09-20T04:45:43.191Z,9.88
2022-09-20T04:46:44.639Z,9.85
2022-09-20T04:47:48.839Z,9.84
2022-09-20T04:49:09.068Z,9.85
2022-09-20T04:50:19.306Z,9.84
2022-09-20T04:51:39.487Z,9.82
2022-09-20T04:53:07.245Z,9.80
2022-09-20T04:54:44.321Z,9.79
2022-09-20T04:55:49.617Z,9.73
2022-09-20T04:57:09.755Z,9.73
2022-09-20T04:58:23.095Z,9.69
2022-09-20T04:59:44.692Z,9.66
2022-09-20T05:01:04.940Z,9.62
2022-09-20T05:02:21.588Z,9.60
2022-09-20T05:03:41.703Z,9.60
2022-09-20T05:05:06.106Z,9.58
2022-09-20T05:06:25.776Z,9.54
2022-09-20T05:07:29.909Z,9.51
2022-09-20T05:08:50.158Z,9.49
2022-09-20T05:10:10.120Z,9.48
2022-09-20T05:11:24.452Z,9.48
2022-09-20T05:12:25.762Z,9.45
2022-09-20T05:13:36.329Z,9.42
2022-09-20T05:14:37.665Z,9.50
2022-09-20T05:15:38.998Z,9.47
2022-09-20T05:16:42.050Z,9.40
2022-09-20T05:17:53.973Z,9.42
2022-09-20T05:19:01.043Z,9.40
2022-09-20T05:20:04.978Z,9.40
2022-09-20T05:21:24.829Z,9.37
2022-09-20T05:22:43.930Z,9.36
2022-09-20T05:23:51.261Z,9.34
2022-09-20T05:24:52.614Z,9.34
2022-09-20T05:25:56.943Z,9.34
2022-09-20T05:27:06.389Z,9.34
2022-09-20T05:28:23.566Z,9.35
2022-09-20T05:29:38.193Z,9.35
2022-09-20T05:31:18.297Z,9.38
2022-09-20T05:32:22.614Z,9.36
2022-09-20T05:33:32.148Z,9.36
2022-09-20T05:34:41.046Z,9.34
2022-09-20T05:36:02.652Z,9.34
2022-09-20T05:37:06.796Z,9.35
2022-09-20T05:38:16.311Z,9.34
2022-09-20T05:39:35.751Z,9.37
2022-09-20T05:41:00.123Z,9.38
2022-09-20T05:42:09.006Z,9.37
2022-09-20T05:43:11.792Z,9.37
2022-09-20T05:44:31.870Z,9.37
2022-09-20T05:45:45.404Z,9.35
2022-09-20T05:47:15.726Z,9.35
2022-09-20T05:48:27.393Z,9.39
2022-09-20T05:49:34.600Z,9.40
2022-09-20T05:50:42.719Z,9.40
2022-09-20T05:52:06.712Z,9.38
2022-09-20T05:53:08.009Z,9.40
2022-09-20T05:54:41.914Z,9.36
2022-09-20T05:55:52.449Z,9.44
2022-09-20T05:57:09.761Z,9.41
2022-09-20T05:58:13.846Z,9.47
2022-09-20T05:59:15.325Z,9.46
2022-09-20T06:00:19.569Z,9.50
2022-09-20T06:01:32.580Z,9.48
2022-09-20T06:02:48.788Z,9.49
2022-09-20T06:04:14.694Z,9.51
2022-09-20T06:05:29.400Z,9.55
2022-09-20T06:06:48.797Z,9.57
2022-09-20T06:08:07.965Z,9.61
2022-09-20T06:09:17.737Z,9.66
2022-09-20T06:10:33.217Z,9.70
2022-09-20T06:11:54.774Z,9.69
2022-09-20T06:13:01.595Z,9.71
2022-09-20T06:14:08.790Z,9.73
2022-09-20T06:15:13.061Z,9.76
2022-09-20T06:16:21.874Z,9.78
2022-09-20T06:17:28.479Z,9.81
2022-09-20T06:18:48.079Z,9.82
2022-09-20T06:20:15.268Z,9.85
2022-09-20T06:21:25.026Z,9.81
2022-09-20T06:22:36.630Z,9.82
2022-09-20T06:23:38.057Z,9.87
2022-09-20T06:24:44.921Z,9.91
2022-09-20T06:25:51.753Z,9.93
2022-09-20T06:26:55.207Z,9.99
2022-09-20T06:27:59.172Z,10.03
2022-09-20T06:29:03.293Z,10.08
2022-09-20T06:30:07.887Z,10.13
2022-09-20T06:31:10.346Z,10.21
2022-09-20T06:32:15.951Z,10.24
2022-09-20T06:33:17.222Z,10.29
2022-09-20T06:34:18.588Z,10.33
2022-09-20T06:35:21.107Z,10.38
2022-09-20T06:36:25.291Z,10.42
2022-09-20T06:37:39.318Z,10.48
2022-09-20T06:38:40.614Z,10.61
2022-09-20T06:40:00.679Z,10.60
2022-09-20T06:41:03.409Z,10.66
2022-09-20T06:42:04.866Z,10.67
2022-09-20T06:43:06.368Z,10.67
2022-09-20T06:44:07.740Z,10.65
2022-09-20T06:45:09.152Z,10.69
2022-09-20T06:46:10.508Z,10.70
2022-09-20T06:47:12.626Z,10.72
2022-09-20T06:48:14.463Z,10.72
2022-09-20T06:49:15.764Z,10.73
2022-09-20T06:50:18.045Z,10.75
2022-09-20T06:51:19.477Z,10.80
2022-09-20T06:52:21.685Z,10.82
2022-09-20T06:53:28.385Z,10.81
2022-09-20T06:54:29.821Z,10.75
2022-09-20T06:55:34.826Z,10.78
2022-09-20T06:56:36.147Z,10.78
2022-09-20T06:57:37.715Z,10.79
2022-09-20T06:58:39.056Z,10.80
2022-09-20T06:59:40.360Z,10.76
2022-09-20T07:00:41.726Z,10.76
2022-09-20T07:01:43.259Z,10.76
2022-09-20T07:02:44.621Z,10.77
2022-09-20T07:03:46.024Z,10.77
2022-09-20T07:04:47.334Z,10.77
2022-09-20T07:05:49.061Z,10.75
2022-09-20T07:06:50.423Z,10.76
2022-09-20T07:07:56.369Z,10.79
2022-09-20T07:08:57.721Z,10.79
2022-09-20T07:09:59.029Z,10.82
2022-09-20T07:11:04.504Z,10.84
2022-09-20T07:12:05.923Z,10.87
2022-09-20T07:13:07.208Z,10.97
2022-09-20T07:14:08.526Z,10.97
2022-09-20T07:15:10.023Z,10.98
2022-09-20T07:16:12.917Z,11.06
2022-09-20T07:17:14.284Z,11.10
2022-09-20T07:18:15.652Z,11.12
2022-09-20T07:19:17.013Z,11.13
2022-09-20T07:20:21.335Z,11.13
2022-09-20T07:21:23.014Z,11.15
2022-09-20T07:22:24.347Z,11.17
2022-09-20T07:23:26.249Z,11.14
2022-09-20T07:24:27.673Z,11.19
2022-09-20T07:25:29.953Z,11.17
2022-09-20T07:26:31.476Z,11.19
2022-09-20T07:27:32.838Z,11.20
2022-09-20T07:28:34.745Z,11.23
2022-09-20T07:29:36.074Z,11.25
2022-09-20T07:30:37.416Z,11.27
2022-09-20T07:31:38.781Z,11.24
2022-09-20T07:32:40.377Z,11.23
2022-09-20T07:33:41.694Z,11.21
2022-09-20T07:34:43.047Z,11.24
2022-09-20T07:35:44.372Z,11.32
2022-09-20T07:36:48.975Z,11.33
2022-09-20T07:37:55.690Z,11.42
2022-09-20T07:38:57.028Z,11.38
2022-09-20T07:39:58.405Z,11.32
2022-09-20T07:41:00.485Z,11.38
2022-09-20T07:42:01.904Z,11.37
2022-09-20T07:43:03.253Z,11.36
2022-09-20T07:44:04.590Z,11.36
2022-09-20T07:45:06.327Z,11.38
2022-09-20T07:46:07.664Z,11.41
2022-09-20T07:47:09.520Z,11.43
2022-09-20T07:48:10.843Z,11.49
2022-09-20T07:49:12.145Z,11.54
2022-09-20T07:50:13.425Z,11.51
2022-09-20T07:51:14.750Z,11.53
2022-09-20T07:52:16.100Z,11.57
2022-09-20T07:53:17.425Z,11.65
2022-09-20T07:54:18.930Z,11.71
2022-09-20T07:55:20.278Z,11.75
2022-09-20T07:56:21.589Z,11.77
2022-09-20T07:57:23.173Z,11.80
2022-09-20T07:58:24.562Z,11.74
2022-09-20T07:59:25.894Z,11.78
2022-09-20T08:00:27.203Z,11.79
2022-09-20T08:01:28.602Z,11.80
2022-09-20T08:02:29.954Z,11.83
2022-09-20T08:03:32.447Z,11.85
2022-09-20T08:04:33.787Z,11.87
2022-09-20T08:05:35.109Z,11.88
2022-09-20T08:06:37.413Z,11.87
2022-09-20T08:07:38.702Z,11.95
2022-09-20T08:08:40.521Z,11.97
2022-09-20T08:09:41.800Z,12.01
2022-09-20T08:10:44.649Z,12.04
2022-09-20T08:11:46.161Z,12.08
2022-09-20T08:14:12.149Z,12.26
2022-09-20T08:15:13.513Z,12.31
2022-09-20T08:16:15.051Z,12.41
2022-09-20T08:17:16.448Z,12.44
2022-09-20T08:18:17.757Z,12.51
2022-09-20T08:19:22.286Z,12.59
2022-09-20T08:20:23.603Z,12.60
2022-09-20T08:21:25.741Z,12.68
2022-09-20T08:22:27.055Z,12.74
2022-09-20T08:23:28.778Z,12.82
2022-09-20T08:24:30.364Z,12.88
2022-09-20T08:25:31.864Z,12.96
2022-09-20T08:26:33.161Z,13.01
2022-09-20T08:27:34.489Z,13.12
2022-09-20T08:28:35.807Z,13.19
2022-09-20T08:29:37.090Z,13.19
2022-09-20T08:30:38.425Z,13.20
2022-09-20T08:31:40.085Z,13.15
2022-09-20T08:32:41.381Z,13.16
2022-09-20T08:33:43.050Z,13.14
2022-09-20T08:34:49.242Z,13.18
2022-09-20T08:35:50.886Z,13.21
2022-09-20T08:36:52.253Z,13.28
2022-09-20T08:37:55.207Z,13.28
2022-09-20T08:40:18.385Z,13.21
2022-09-20T08:41:23.683Z,13.13
2022-09-20T08:42:24.967Z,13.12
2022-09-20T08:43:28.024Z,13.15
2022-09-20T08:44:35.175Z,13.04
2022-09-20T08:45:38.422Z,13.01
2022-09-20T08:46:42.130Z,12.99
2022-09-20T08:47:58.977Z,13.00
2022-09-20T08:49:00.507Z,13.01
2022-09-20T08:50:11.773Z,13.11
2022-09-20T08:51:15.022Z,13.21
2022-09-20T08:52:37.435Z,13.28
2022-09-20T08:53:41.349Z,13.44
2022-09-20T08:54:42.808Z,13.53
2022-09-20T08:55:44.380Z,13.55
2022-09-20T08:56:45.757Z,13.62
2022-09-20T08:57:49.313Z,13.63
2022-09-20T08:58:50.722Z,13.71
2022-09-20T08:59:52.087Z,13.79
2022-09-20T09:00:54.378Z,13.74
2022-09-20T09:01:55.758Z,13.76
2022-09-20T09:02:58.264Z,13.75
2022-09-20T09:04:11.425Z,13.74
2022-09-20T09:05:31.134Z,13.66
2022-09-20T09:06:33.049Z,13.70
2022-09-20T09:07:34.348Z,13.71
2022-09-20T09:08:38.268Z,13.69
2022-09-20T09:09:41.762Z,13.74
2022-09-20T09:10:45.479Z,13.72
2022-09-20T09:11:47.014Z,13.68
2022-09-20T09:12:49.068Z,13.74
2022-09-20T09:13:53.345Z,13.63
2022-09-20T09:14:58.604Z,13.75
2022-09-20T09:16:12.198Z,13.82
2022-09-20T09:17:15.407Z,13.79
2022-09-20T09:18:16.736Z,13.78
2022-09-20T09:19:34.524Z,13.80
2022-09-20T09:20:42.178Z,13.85
2022-09-20T09:21:43.524Z,13.84
2022-09-20T09:22:45.636Z,13.80
2022-09-20T09:23:50.935Z,13.83
2022-09-20T09:25:10.998Z,13.92
2022-09-20T09:26:14.995Z,13.87
2022-09-20T09:27:17.618Z,13.93
2022-09-20T09:28:22.337Z,13.98
2022-09-20T09:29:23.714Z,13.98
2022-09-20T09:30:27.460Z,13.91
2022-09-20T09:31:29.074Z,13.92
2022-09-20T09:32:31.346Z,13.93
2022-09-20T09:33:34.116Z,13.91
2022-09-20T09:34:35.437Z,13.87
2022-09-20T09:35:36.836Z,13.89
2022-09-20T09:36:43.880Z,13.96
2022-09-20T09:37:53.325Z,13.97
2022-09-20T09:39:14.331Z,14.01
2022-09-20T09:40:17.601Z,13.96
2022-09-20T09:41:23.361Z,14.02
2022-09-20T09:42:25.497Z,13.97
2022-09-20T09:43:28.444Z,14.01
2022-09-20T09:44:30.880Z,14.04
2022-09-20T09:45:32.263Z,14.02
2022-09-20T09:46:34.408Z,14.07
2022-09-20T09:47:36.947Z,14.13
2022-09-20T09:48:40.218Z,14.15
2022-09-20T09:49:59.863Z,14.23
2022-09-20T09:51:09.123Z,14.39
2022-09-20T09:52:10.424Z,14.48
2022-09-20T09:53:16.530Z,14.59
2022-09-20T09:54:18.141Z,14.61
2022-09-20T09:55:19.481Z,14.75
2022-09-20T09:56:26.692Z,14.89
2022-09-20T09:57:50.838Z,14.95
2022-09-20T09:59:04.093Z,15.00
2022-09-20T10:00:16.722Z,15.00
2022-09-20T10:01:30.038Z,14.99
2022-09-20T10:02:53.036Z,14.98
2022-09-20T10:04:02.241Z,14.98
2022-09-20T10:05:03.533Z,14.93
2022-09-20T10:06:07.834Z,14.84
2022-09-20T10:07:14.282Z,14.84
2022-09-20T10:08:15.588Z,14.77
2022-09-20T10:09:19.940Z,14.81
2022-09-20T10:10:21.245Z,14.79
2022-09-20T10:11:34.541Z,14.75
2022-09-20T10:12:35.828Z,14.69
2022-09-20T10:13:55.897Z,14.65
2022-09-20T10:15:16.025Z,14.69
2022-09-20T10:16:26.286Z,14.75
2022-09-20T10:18:03.172Z,14.76
2022-09-20T10:19:04.571Z,14.81
2022-09-20T10:20:05.924Z,14.80
2022-09-20T10:21:07.269Z,14.84
2022-09-20T10:22:14.271Z,15.00
2022-09-20T10:24:01.346Z,15.09
2022-09-20T10:25:03.553Z,15.18
2022-09-20T10:26:23.649Z,15.19
2022-09-20T10:27:33.620Z,15.15
2022-09-20T10:28:37.761Z,15.15
2022-09-20T10:29:51.472Z,15.10
2022-09-20T10:30:55.844Z,15.12
2022-09-20T10:32:03.131Z,15.18
2022-09-20T10:33:27.572Z,15.19
2022-09-20T10:34:47.092Z,15.38
2022-09-20T10:36:05.088Z,15.46
2022-09-20T10:37:12.011Z,15.61
2022-09-20T10:38:26.139Z,15.77
2022-09-20T10:39:34.601Z,15.89
2022-09-20T10:40:36.027Z,16.01
2022-09-20T10:41:37.441Z,16.02
2022-09-20T10:42:46.032Z,16.05
2022-09-20T10:43:59.276Z,16.06
2022-09-20T10:45:09.372Z,16.04
2022-09-20T10:46:34.300Z,15.99
2022-09-20T10:47:45.209Z,15.92
2022-09-20T10:48:48.221Z,15.94
2022-09-20T10:49:52.555Z,15.78
2022-09-20T10:51:04.265Z,15.67
2022-09-20T10:52:17.553Z,15.57
2022-09-20T10:53:31.213Z,15.51
2022-09-20T10:54:44.701Z,15.56
2022-09-20T10:56:01.329Z,15.56
2022-09-20T10:57:28.403Z,15.71
2022-09-20T10:58:49.756Z,15.79
2022-09-20T11:00:00.076Z,15.91
2022-09-20T11:01:23.200Z,15.91
2022-09-20T11:02:27.822Z,15.94
2022-09-20T11:03:47.727Z,16.09
2022-09-20T11:04:55.572Z,16.06
2022-09-20T11:05:59.888Z,16.25
2022-09-20T11:07:15.201Z,16.41
2022-09-20T11:08:19.136Z,16.55
2022-09-20T11:09:23.346Z,16.56
2022-09-20T11:10:27.744Z,16.52
2022-09-20T11:11:34.211Z,16.54
2022-09-20T11:12:44.488Z,16.48
2022-09-20T11:14:06.117Z,16.49
2022-09-20T11:15:26.054Z,16.17
2022-09-20T11:16:29.227Z,16.20
2022-09-20T11:17:34.847Z,16.23
2022-09-20T11:18:39.449Z,16.20
2022-09-20T11:19:50.513Z,16.34
2022-09-20T11:20:56.593Z,16.45
2022-09-20T11:22:03.267Z,16.52
2022-09-20T11:23:24.822Z,16.56
2022-09-20T11:24:30.301Z,16.52
2022-09-20T11:25:47.172Z,16.62
2022-09-20T11:26:53.605Z,16.46
2022-09-20T11:28:13.929Z,16.46
2022-09-20T11:29:26.604Z,16.37
2022-09-20T11:30:28.843Z,16.31
2022-09-20T11:31:33.299Z,16.27
2022-09-20T11:33:03.909Z,16.17
2022-09-20T11:34:20.061Z,16.10
2022-09-20T11:35:21.413Z,16.08
2022-09-20T11:36:26.728Z,16.03
2022-09-20T11:37:32.914Z,16.11
2022-09-20T11:38:46.101Z,16.12
2022-09-20T11:39:51.246Z,16.26
2022-09-20T11:40:58.540Z,16.30
2022-09-20T11:42:01.261Z,16.32
2022-09-20T11:43:04.731Z,16.20
2022-09-20T11:44:07.930Z,16.10
2022-09-20T11:45:12.023Z,16.12
2022-09-20T11:46:18.505Z,16.08
2022-09-20T11:47:50.086Z,16.03
2022-09-20T11:48:48.013Z,15.96
2022-09-20T11:49:58.391Z,15.99
2022-09-20T11:51:18.635Z,15.76
2022-09-20T11:52:38.418Z,15.61
2022-09-20T11:53:42.694Z,15.39
2022-09-20T11:54:43.971Z,15.33
2022-09-20T11:55:59.738Z,15.35
2022-09-20T11:57:01.348Z,15.41
2022-09-20T11:58:04.896Z,15.44
2022-09-20T11:59:17.416Z,15.48
2022-09-20T12:00:28.379Z,15.48
2022-09-20T12:01:35.252Z,15.49
2022-09-20T12:02:43.003Z,15.53
2022-09-20T12:03:50.385Z,15.60
2022-09-20T12:04:52.293Z,15.62
2022-09-20T12:06:01.149Z,15.66
2022-09-20T12:07:17.805Z,15.72
2022-09-20T12:08:25.702Z,15.59
2022-09-20T12:09:34.993Z,15.49
2022-09-20T12:10:37.315Z,15.52
2022-09-20T12:11:38.973Z,15.58
2022-09-20T12:12:48.723Z,15.71
2022-09-20T12:13:56.339Z,15.84
2022-09-20T12:14:59.799Z,16.04
2022-09-20T12:16:13.688Z,16.12
2022-09-20T12:17:34.829Z,16.09
2022-09-20T12:18:45.661Z,16.25
2022-09-20T12:19:47.002Z,16.41
2022-09-20T12:20:58.929Z,16.52
2022-09-20T12:22:00.224Z,16.60
2022-09-20T12:23:20.055Z,16.51
2022-09-20T12:24:21.523Z,16.42
2022-09-20T12:25:36.876Z,16.48
2022-09-20T12:26:39.632Z,16.46
2022-09-20T12:27:41.103Z,16.44
2022-09-20T12:28:43.575Z,16.59
2022-09-20T12:29:47.698Z,16.76
2022-09-20T12:31:08.988Z,16.86
2022-09-20T12:32:28.862Z,16.99
2022-09-20T12:33:50.199Z,17.12
2022-09-20T12:34:51.645Z,17.22
2022-09-20T12:35:57.267Z,17.23
2022-09-20T12:36:58.637Z,17.13
2022-09-20T12:38:16.568Z,17.11
2022-09-20T12:39:24.196Z,17.15
2022-09-20T12:40:27.742Z,17.28
2022-09-20T12:41:43.875Z,17.28
2022-09-20T12:42:54.532Z,17.21
2022-09-20T12:44:03.977Z,17.15
2022-09-20T12:45:15.460Z,16.99
2022-09-20T12:46:20.839Z,17.00
2022-09-20T12:47:28.176Z,17.03
2022-09-20T12:48:34.346Z,17.10
2022-09-20T12:49:41.533Z,17.17
2022-09-20T12:50:43.090Z,17.06
2022-09-20T12:51:50.810Z,17.05
2022-09-20T12:52:53.822Z,17.04
2022-09-20T12:53:59.795Z,16.96
2022-09-20T12:55:04.689Z,16.85
2022-09-20T12:56:15.436Z,16.63
2022-09-20T12:57:17.878Z,16.63
2022-09-20T12:58:23.906Z,16.53
2022-09-20T12:59:26.657Z,16.48
2022-09-20T13:00:33.315Z,16.38
2022-09-20T13:01:36.722Z,16.24
2022-09-20T13:02:41.946Z,16.23
2022-09-20T13:03:47.469Z,16.23
2022-09-20T13:04:55.738Z,16.18
2022-09-20T13:06:06.010Z,16.09
2022-09-20T13:07:29.839Z,15.97
2022-09-20T13:08:32.318Z,15.86
2022-09-20T13:09:34.537Z,15.80
2022-09-20T13:10:37.938Z,15.80
2022-09-20T13:11:50.880Z,15.75
2022-09-20T13:12:54.725Z,15.78
2022-09-20T13:14:08.125Z,15.72
2022-09-20T13:15:16.601Z,15.58
2022-09-20T13:16:23.867Z,15.62
2022-09-20T13:17:26.826Z,15.64
2022-09-20T13:18:28.861Z,15.55
2022-09-20T13:19:35.239Z,15.55
2022-09-20T13:20:36.644Z,15.60
2022-09-20T13:21:40.153Z,15.57
2022-09-20T13:22:41.491Z,15.58
2022-09-20T13:23:49.175Z,15.64
2022-09-20T13:24:52.055Z,15.70
2022-09-20T13:25:55.262Z,15.75
2022-09-20T13:27:01.349Z,15.79
2022-09-20T13:28:07.560Z,15.79
2022-09-20T13:29:09.409Z,15.82
2022-09-20T13:30:16.686Z,15.84
2022-09-20T13:31:21.233Z,15.87
2022-09-20T13:32:25.377Z,15.93
2022-09-20T13:33:26.731Z,15.94
2022-09-20T13:34:28.057Z,15.91
2022-09-20T13:35:29.396Z,15.94
2022-09-20T13:36:30.777Z,15.99
2022-09-20T13:37:32.457Z,16.03
2022-09-20T13:38:33.869Z,16.17
2022-09-20T13:39:36.654Z,16.21
2022-09-20T13:40:42.250Z,16.21
2022-09-20T13:41:43.661Z,16.21
2022-09-20T13:42:45.618Z,16.26
2022-09-20T13:43:51.473Z,16.27
2022-09-20T13:44:52.987Z,16.30
2022-09-20T13:45:58.853Z,16.34
2022-09-20T13:47:00.749Z,16.35
2022-09-20T13:48:02.094Z,16.31
2022-09-20T13:49:12.777Z,16.23
2022-09-20T13:50:27.401Z,16.26
2022-09-20T13:51:28.912Z,16.25
2022-09-20T13:52:31.417Z,16.24
2022-09-20T13:53:41.626Z,16.13
2022-09-20T13:54:43.490Z,16.09
2022-09-20T13:55:45.309Z,15.93
2022-09-20T13:56:47.077Z,15.93
2022-09-20T13:57:48.561Z,15.79
2022-09-20T13:58:50.880Z,15.68
2022-09-20T13:59:52.599Z,15.49
2022-09-20T14:00:55.440Z,15.50
2022-09-20T14:01:57.476Z,15.46
2022-09-20T14:02:58.951Z,15.33
2022-09-20T14:04:05.574Z,15.29
2022-09-20T14:05:07.429Z,15.25
2022-09-20T14:06:12.135Z,15.20
2022-09-20T14:07:14.477Z,15.18
2022-09-20T14:08:21.067Z,15.12
2022-09-20T14:09:28.181Z,15.09
2022-09-20T14:10:34.547Z,15.10
2022-09-20T14:11:36.909Z,15.16
2022-09-20T14:12:38.350Z,15.09
2022-09-20T14:13:41.467Z,15.13
2022-09-20T14:14:43.817Z,15.04
2022-09-20T14:15:46.542Z,15.04
2022-09-20T14:16:48.114Z,15.02
2022-09-20T14:17:49.986Z,14.97
2022-09-20T14:18:51.486Z,14.99
2022-09-20T14:19:54.221Z,14.99
2022-09-20T14:20:55.645Z,15.08
2022-09-20T14:21:58.524Z,15.12
2022-09-20T14:23:00.260Z,15.16
2022-09-20T14:24:22.497Z,15.25
2022-09-20T14:25:24.929Z,15.29
2022-09-20T14:26:28.969Z,15.35
2022-09-20T14:27:30.416Z,15.41
2022-09-20T14:28:31.831Z,15.40
2022-09-20T14:30:02.563Z,15.32
2022-09-20T14:31:07.597Z,15.29
2022-09-20T14:32:21.758Z,15.33
2022-09-20T14:33:23.263Z,15.37
2022-09-20T14:34:24.694Z,15.37
2022-09-20T14:35:26.112Z,15.33
2022-09-20T14:36:28.661Z,15.35
2022-09-20T14:37:32.313Z,15.29
2022-09-20T14:38:33.661Z,15.26
2022-09-20T14:39:44.925Z,15.26